createdAt,value
2024-05-09T00:01:11.789Z,7.09
2024-05-09T00:04:18.557Z,7.03
2024-05-09T00:07:20.713Z,6.98
2024-05-09T00:10:50.656Z,6.95
2024-05-09T00:13:52.659Z,6.91
2024-05-09T00:17:17.941Z,6.87
2024-05-09T00:20:35.294Z,6.83
2024-05-09T00:23:43.186Z,6.80
2024-05-09T00:27:25.359Z,6.77
2024-05-09T00:30:47.349Z,6.73
2024-05-09T00:33:59.712Z,6.71
2024-05-09T00:37:01.749Z,6.69
2024-05-09T00:40:34.697Z,6.66
2024-05-09T00:43:41.020Z,6.63
2024-05-09T00:46:45.428Z,6.61
2024-05-09T00:49:48.538Z,6.60
2024-05-09T00:53:31.091Z,6.60
2024-05-09T00:56:41.510Z,6.58
2024-05-09T00:59:43.880Z,6.56
2024-05-09T01:03:06.213Z,6.53
2024-05-09T01:06:08.497Z,6.49
2024-05-09T01:09:15.926Z,6.45
2024-05-09T01:12:20.670Z,6.42
2024-05-09T01:15:28.590Z,6.37
2024-05-09T01:19:05.029Z,6.31
2024-05-09T01:22:09.808Z,6.24
2024-05-09T01:25:24.066Z,6.19
2024-05-09T01:28:34.915Z,6.13
2024-05-09T01:31:59.832Z,6.07
2024-05-09T01:35:28.652Z,6.03
2024-05-09T01:39:31.000Z,5.99
2024-05-09T01:42:53.011Z,5.95
2024-05-09T01:46:37.388Z,5.91
2024-05-09T01:49:40.636Z,5.88
2024-05-09T01:53:15.767Z,5.85
2024-05-09T01:56:17.582Z,5.82
2024-05-09T01:59:40.195Z,5.79
2024-05-09T02:02:45.768Z,5.75
2024-05-09T02:05:50.425Z,5.71
2024-05-09T02:08:52.239Z,5.67
2024-05-09T02:11:54.265Z,5.64
2024-05-09T02:15:19.678Z,5.60
2024-05-09T02:18:24.381Z,5.56
2024-05-09T02:21:26.259Z,5.53
2024-05-09T02:24:51.095Z,5.50
2024-05-09T02:27:55.600Z,5.47
2024-05-09T02:31:00.831Z,5.45
2024-05-09T02:34:08.085Z,5.43
2024-05-09T02:37:12.970Z,5.40
2024-05-09T02:40:25.219Z,5.38
2024-05-09T02:43:30.896Z,5.34
2024-05-09T02:46:35.224Z,5.31
2024-05-09T02:50:05.960Z,5.27
2024-05-09T02:53:09.503Z,5.23
2024-05-09T02:56:12.086Z,5.19
2024-05-09T02:59:13.978Z,5.15
2024-05-09T03:02:18.118Z,5.11
2024-05-09T03:05:22.299Z,5.07
2024-05-09T03:08:24.316Z,5.04
2024-05-09T03:11:26.664Z,5.02
2024-05-09T03:14:31.183Z,4.99
2024-05-09T03:17:33.121Z,4.95
2024-05-09T03:20:36.348Z,4.93
2024-05-09T03:23:42.391Z,4.90
2024-05-09T03:26:44.826Z,4.87
2024-05-09T03:29:49.937Z,4.84
2024-05-09T03:32:51.999Z,4.84
2024-05-09T03:35:54.016Z,4.86
2024-05-09T03:38:58.420Z,4.89
2024-05-09T03:42:00.427Z,4.94
2024-05-09T03:45:02.096Z,4.99
2024-05-09T03:48:04.374Z,5.05
2024-05-09T03:51:39.701Z,5.12
2024-05-09T03:54:47.466Z,5.22
2024-05-09T03:57:49.145Z,5.30
2024-05-09T04:01:11.726Z,5.39
2024-05-09T04:04:13.683Z,5.50
2024-05-09T04:07:15.758Z,5.61
2024-05-09T04:10:27.383Z,5.72
2024-05-09T04:13:33.072Z,5.86
2024-05-09T04:16:34.888Z,5.97
2024-05-09T04:19:59.512Z,6.11
2024-05-09T04:23:04.389Z,6.26
2024-05-09T04:26:08.779Z,6.39
2024-05-09T04:29:16.469Z,6.52
2024-05-09T04:32:43.710Z,6.66
2024-05-09T04:36:03.715Z,6.81
2024-05-09T04:39:36.031Z,6.93
2024-05-09T04:42:40.839Z,7.07
2024-05-09T04:45:45.611Z,7.19
2024-05-09T04:48:48.717Z,7.31
2024-05-09T04:51:58.138Z,7.43
2024-05-09T04:55:03.096Z,7.56
2024-05-09T04:58:07.095Z,7.69
2024-05-09T05:01:11.712Z,7.81
2024-05-09T05:04:13.383Z,7.94
2024-05-09T05:07:15.152Z,8.06
2024-05-09T05:10:25.094Z,8.18
2024-05-09T05:13:32.397Z,8.32
2024-05-09T05:16:34.227Z,8.44
2024-05-09T05:19:39.135Z,8.58
2024-05-09T05:22:43.074Z,8.71
2024-05-09T05:25:47.874Z,8.83
2024-05-09T05:29:10.164Z,8.94
2024-05-09T05:32:12.720Z,9.08
2024-05-09T05:35:35.184Z,9.21
2024-05-09T05:38:59.481Z,9.37
2024-05-09T05:42:01.308Z,9.52
2024-05-09T05:45:26.017Z,9.62
2024-05-09T05:48:33.281Z,9.74
2024-05-09T05:51:38.550Z,9.83
2024-05-09T05:54:40.549Z,9.94
2024-05-09T05:57:43.597Z,10.06
2024-05-09T06:00:45.589Z,10.16
2024-05-09T06:03:47.475Z,10.25
2024-05-09T06:06:49.445Z,10.38
2024-05-09T06:09:51.303Z,10.49
2024-05-09T06:12:53.229Z,10.61
2024-05-09T06:15:55.029Z,10.70
2024-05-09T06:18:59.908Z,10.80
2024-05-09T06:22:02.963Z,10.93
2024-05-09T06:25:08.209Z,11.05
2024-05-09T06:28:12.691Z,11.17
2024-05-09T06:31:14.656Z,11.29
2024-05-09T06:34:18.801Z,11.39
2024-05-09T06:37:51.403Z,11.48
2024-05-09T06:41:05.818Z,11.61
2024-05-09T06:44:20.024Z,11.77
2024-05-09T06:47:21.923Z,11.94
2024-05-09T06:50:35.244Z,12.07
2024-05-09T06:53:40.608Z,12.20
2024-05-09T06:56:44.847Z,12.33
2024-05-09T06:59:59.648Z,12.47
2024-05-09T07:03:19.667Z,12.60
2024-05-09T07:06:21.880Z,12.70
2024-05-09T07:09:35.864Z,12.83
2024-05-09T07:12:37.596Z,13.00
2024-05-09T07:15:40.858Z,13.17
2024-05-09T07:18:42.990Z,13.33
2024-05-09T07:21:47.741Z,13.47
2024-05-09T07:24:49.500Z,13.60
2024-05-09T07:27:53.921Z,13.74
2024-05-09T07:30:55.649Z,13.88
2024-05-09T07:33:58.782Z,14.03
2024-05-09T07:37:01.923Z,14.15
2024-05-09T07:40:07.430Z,14.32
2024-05-09T07:43:14.101Z,14.50
2024-05-09T07:47:14.207Z,14.63
2024-05-09T07:51:32.568Z,14.73
2024-05-09T07:53:36.653Z,14.91
2024-05-09T07:56:30.545Z,15.11
2024-05-09T07:59:53.052Z,15.29
2024-05-09T08:02:55.071Z,15.47
2024-05-09T08:06:01.672Z,15.62
2024-05-09T08:09:08.056Z,15.78
2024-05-09T08:12:19.371Z,15.95
2024-05-09T08:15:21.074Z,16.09
2024-05-09T08:18:25.546Z,16.22
2024-05-09T08:21:29.594Z,16.35
2024-05-09T08:24:31.635Z,16.51
2024-05-09T08:27:33.520Z,16.66
2024-05-09T08:30:37.419Z,16.84
2024-05-09T08:33:51.395Z,17.03
2024-05-09T08:36:54.094Z,17.19
2024-05-09T08:39:56.135Z,17.27
2024-05-09T08:43:01.498Z,17.33
2024-05-09T08:46:06.138Z,17.39
2024-05-09T08:49:08.426Z,17.50
2024-05-09T08:52:10.444Z,17.60
2024-05-09T08:55:12.916Z,17.70
2024-05-09T08:58:19.701Z,17.79
2024-05-09T09:01:22.859Z,17.94
2024-05-09T09:04:25.217Z,18.12
2024-05-09T09:07:30.040Z,18.27
2024-05-09T09:10:35.221Z,18.35
2024-05-09T09:13:42.476Z,18.44
2024-05-09T09:16:45.957Z,18.52
2024-05-09T09:19:48.078Z,18.54
2024-05-09T09:22:50.033Z,18.54
2024-05-09T09:26:03.546Z,18.63
2024-05-09T09:29:05.259Z,18.77
2024-05-09T09:32:11.181Z,18.89
2024-05-09T09:35:12.978Z,19.01
2024-05-09T09:38:39.887Z,19.14
2024-05-09T09:41:46.775Z,19.30
2024-05-09T09:44:58.215Z,19.51
2024-05-09T09:48:08.039Z,19.68
2024-05-09T09:51:10.667Z,19.83
2024-05-09T09:54:13.618Z,19.89
2024-05-09T09:57:18.196Z,19.91
2024-05-09T10:00:27.158Z,19.96
2024-05-09T10:03:34.520Z,20.06
2024-05-09T10:06:42.274Z,20.18
2024-05-09T10:10:06.876Z,20.33
2024-05-09T10:13:09.025Z,20.46
2024-05-09T10:16:11.591Z,20.52
2024-05-09T10:19:46.496Z,20.63
2024-05-09T10:22:52.013Z,20.86
2024-05-09T10:25:58.462Z,21.11
2024-05-09T10:29:03.270Z,21.30
2024-05-09T10:32:05.516Z,21.49
2024-05-09T10:35:08.962Z,21.64
2024-05-09T10:38:12.569Z,21.79
2024-05-09T10:41:16.739Z,21.84
2024-05-09T10:44:18.679Z,21.91
2024-05-09T10:47:21.245Z,22.01
2024-05-09T10:50:28.580Z,22.14
2024-05-09T10:53:56.646Z,22.32
2024-05-09T10:56:58.513Z,22.46
2024-05-09T11:00:00.176Z,22.59
2024-05-09T11:03:02.032Z,22.74
2024-05-09T11:06:04.268Z,22.85
2024-05-09T11:09:06.862Z,22.94
2024-05-09T11:12:28.917Z,22.92
2024-05-09T11:15:43.005Z,23.05
2024-05-09T11:18:54.606Z,23.24
2024-05-09T11:21:58.268Z,23.36
2024-05-09T11:25:04.462Z,23.53
2024-05-09T11:28:07.760Z,23.72
2024-05-09T11:31:10.483Z,23.90
2024-05-09T11:34:12.765Z,24.05
2024-05-09T11:37:14.812Z,24.18
2024-05-09T11:40:24.345Z,24.35
2024-05-09T11:43:27.751Z,24.50
2024-05-09T11:46:29.685Z,24.50
2024-05-09T11:49:31.585Z,24.50
2024-05-09T11:52:33.446Z,24.55
2024-05-09T11:55:38.118Z,24.63
2024-05-09T11:58:41.404Z,24.79
2024-05-09T12:01:43.320Z,24.93
2024-05-09T12:04:46.819Z,25.11
2024-05-09T12:07:48.804Z,25.17
2024-05-09T12:10:50.692Z,25.14
2024-05-09T12:13:54.859Z,25.15
2024-05-09T12:17:01.016Z,25.17
2024-05-09T12:20:04.304Z,25.21
2024-05-09T12:23:12.175Z,25.22
2024-05-09T12:26:15.645Z,25.26
2024-05-09T12:29:18.021Z,25.32
2024-05-09T12:32:20.004Z,25.38
2024-05-09T12:35:21.774Z,25.46
2024-05-09T12:38:23.767Z,25.45
2024-05-09T12:41:25.871Z,25.54
2024-05-09T12:44:27.463Z,25.61
2024-05-09T12:47:29.729Z,25.57
2024-05-09T12:50:33.602Z,25.43
2024-05-09T12:53:36.521Z,25.32
2024-05-09T12:56:38.196Z,25.41
2024-05-09T12:59:42.272Z,25.50
2024-05-09T13:02:44.001Z,25.63
2024-05-09T13:05:46.384Z,25.85
2024-05-09T13:08:48.245Z,25.95
2024-05-09T13:11:50.053Z,25.89
2024-05-09T13:15:01.088Z,25.78
2024-05-09T13:18:06.725Z,25.61
2024-05-09T13:21:08.661Z,25.46
2024-05-09T13:24:10.413Z,25.35
2024-05-09T13:27:14.954Z,25.25
2024-05-09T13:30:28.816Z,25.09
2024-05-09T13:33:55.539Z,25.07
2024-05-09T13:36:57.467Z,25.07
2024-05-09T13:40:00.604Z,25.10
2024-05-09T13:43:05.396Z,25.19
2024-05-09T13:46:07.576Z,25.27
2024-05-09T13:49:12.384Z,25.30
2024-05-09T13:52:14.648Z,25.45
2024-05-09T13:55:16.467Z,25.53
2024-05-09T13:58:23.207Z,25.45
2024-05-09T14:01:28.657Z,25.48
2024-05-09T14:04:30.622Z,25.49
2024-05-09T14:07:32.635Z,25.69
2024-05-09T14:10:35.476Z,25.89
2024-05-09T14:13:39.572Z,25.94
2024-05-09T14:16:44.661Z,25.94
2024-05-09T14:20:13.999Z,25.93
2024-05-09T14:23:19.852Z,25.87
2024-05-09T14:26:21.680Z,25.72
2024-05-09T14:29:23.633Z,25.59
2024-05-09T14:32:25.525Z,25.56
2024-05-09T14:35:30.102Z,25.59
2024-05-09T14:38:32.002Z,25.71
2024-05-09T14:41:33.789Z,25.86
2024-05-09T14:44:35.476Z,25.82
2024-05-09T14:47:37.380Z,25.75
2024-05-09T14:50:40.750Z,25.67
2024-05-09T14:53:43.127Z,25.64
2024-05-09T14:56:44.902Z,25.62
2024-05-09T14:59:46.510Z,25.49
2024-05-09T15:02:51.041Z,25.44
2024-05-09T15:05:53.327Z,25.50
2024-05-09T15:08:57.352Z,25.62
2024-05-09T15:12:01.768Z,25.64
2024-05-09T15:15:04.018Z,25.66
2024-05-09T15:18:06.413Z,25.66
2024-05-09T15:21:08.545Z,25.60
2024-05-09T15:24:10.302Z,25.64
2024-05-09T15:27:12.519Z,25.70
2024-05-09T15:33:17.440Z,25.55
2024-05-09T15:36:20.341Z,25.33
2024-05-09T15:39:30.409Z,24.93
2024-05-09T15:42:32.426Z,24.53
